sensor_id;sensor_type;location;lat;lon;timestamp;P1;durP1;ratioP1;P2;durP2;ratioP2
70975;SDS011;58635;51.198;6.010;2022-08-19T00:00:27;17.35;;;15.52;;
70975;SDS011;58635;51.198;6.010;2022-08-19T00:02:53;16.55;;;14.88;;
70975;SDS011;58635;51.198;6.010;2022-08-19T00:05:19;15.95;;;14.45;;
70975;SDS011;58635;51.198;6.010;2022-08-19T00:07:46;16.92;;;14.10;;
70975;SDS011;58635;51.198;6.010;2022-08-19T00:10:14;13.60;;;12.40;;
70975;SDS011;58635;51.198;6.010;2022-08-19T00:12:40;15.30;;;13.90;;
70975;SDS011;58635;51.198;6.010;2022-08-19T00:15:07;14.90;;;13.50;;
70975;SDS011;58635;51.198;6.010;2022-08-19T00:17:41;15.38;;;13.98;;
70975;SDS011;58635;51.198;6.010;2022-08-19T00:20:09;15.30;;;13.73;;
70975;SDS011;58635;51.198;6.010;2022-08-19T00:22:36;14.65;;;13.18;;
70975;SDS011;58635;51.198;6.010;2022-08-19T00:25:03;13.70;;;12.40;;
70975;SDS011;58635;51.198;6.010;2022-08-19T00:27:30;13.82;;;12.52;;
70975;SDS011;58635;51.198;6.010;2022-08-19T00:29:56;14.45;;;12.95;;
70975;SDS011;58635;51.198;6.010;2022-08-19T00:32:21;13.32;;;11.93;;
70975;SDS011;58635;51.198;6.010;2022-08-19T00:34:47;11.82;;;10.63;;
70975;SDS011;58635;51.198;6.010;2022-08-19T00:37:12;11.60;;;10.60;;
70975;SDS011;58635;51.198;6.010;2022-08-19T00:39:38;13.35;;;11.95;;
70975;SDS011;58635;51.198;6.010;2022-08-19T00:42:03;12.32;;;11.23;;
70975;SDS011;58635;51.198;6.010;2022-08-19T00:44:31;11.80;;;10.68;;
70975;SDS011;58635;51.198;6.010;2022-08-19T00:46:57;13.35;;;12.00;;
70975;SDS011;58635;51.198;6.010;2022-08-19T00:49:37;13.55;;;12.18;;
70975;SDS011;58635;51.198;6.010;2022-08-19T00:52:12;13.95;;;12.63;;
70975;SDS011;58635;51.198;6.010;2022-08-19T00:54:43;14.93;;;13.43;;
70975;SDS011;58635;51.198;6.010;2022-08-19T00:57:11;15.65;;;14.23;;
70975;SDS011;58635;51.198;6.010;2022-08-19T00:59:42;15.00;;;13.70;;
70975;SDS011;58635;51.198;6.010;2022-08-19T01:02:11;16.17;;;14.65;;
70975;SDS011;58635;51.198;6.010;2022-08-19T01:04:37;15.73;;;14.32;;
70975;SDS011;58635;51.198;6.010;2022-08-19T01:07:03;15.77;;;14.18;;
70975;SDS011;58635;51.198;6.010;2022-08-19T01:09:29;16.02;;;14.40;;
70975;SDS011;58635;51.198;6.010;2022-08-19T01:11:55;16.55;;;14.90;;
70975;SDS011;58635;51.198;6.010;2022-08-19T01:14:21;16.88;;;14.80;;
70975;SDS011;58635;51.198;6.010;2022-08-19T01:16:48;17.27;;;15.57;;
70975;SDS011;58635;51.198;6.010;2022-08-19T01:19:18;17.70;;;16.20;;
70975;SDS011;58635;51.198;6.010;2022-08-19T01:22:02;16.67;;;15.05;;
70975;SDS011;58635;51.198;6.010;2022-08-19T01:24:33;15.77;;;14.38;;
70975;SDS011;58635;51.198;6.010;2022-08-19T01:26:59;16.48;;;14.98;;
70975;SDS011;58635;51.198;6.010;2022-08-19T01:29:25;16.02;;;14.50;;
70975;SDS011;58635;51.198;6.010;2022-08-19T01:31:50;17.48;;;15.55;;
70975;SDS011;58635;51.198;6.010;2022-08-19T01:34:18;16.15;;;14.55;;
70975;SDS011;58635;51.198;6.010;2022-08-19T01:36:44;16.23;;;14.73;;
70975;SDS011;58635;51.198;6.010;2022-08-19T01:39:16;16.33;;;14.73;;
70975;SDS011;58635;51.198;6.010;2022-08-19T01:41:48;17.80;;;16.20;;
70975;SDS011;58635;51.198;6.010;2022-08-19T01:44:14;17.40;;;15.80;;
70975;SDS011;58635;51.198;6.010;2022-08-19T01:46:41;17.73;;;15.98;;
70975;SDS011;58635;51.198;6.010;2022-08-19T01:49:08;16.40;;;14.82;;
70975;SDS011;58635;51.198;6.010;2022-08-19T01:51:35;16.33;;;14.73;;
70975;SDS011;58635;51.198;6.010;2022-08-19T01:54:00;15.75;;;14.10;;
70975;SDS011;58635;51.198;6.010;2022-08-19T01:56:26;16.80;;;15.30;;
70975;SDS011;58635;51.198;6.010;2022-08-19T01:59:02;16.10;;;14.43;;
70975;SDS011;58635;51.198;6.010;2022-08-19T02:01:29;15.98;;;14.48;;
70975;SDS011;58635;51.198;6.010;2022-08-19T02:03:58;15.85;;;14.35;;
70975;SDS011;58635;51.198;6.010;2022-08-19T02:06:25;16.13;;;14.45;;
70975;SDS011;58635;51.198;6.010;2022-08-19T02:08:52;15.13;;;13.65;;
70975;SDS011;58635;51.198;6.010;2022-08-19T02:11:21;15.43;;;13.88;;
70975;SDS011;58635;51.198;6.010;2022-08-19T02:13:51;15.18;;;13.77;;
70975;SDS011;58635;51.198;6.010;2022-08-19T02:16:17;15.25;;;13.90;;
70975;SDS011;58635;51.198;6.010;2022-08-19T02:18:43;14.48;;;13.18;;
70975;SDS011;58635;51.198;6.010;2022-08-19T02:21:09;16.52;;;14.93;;
70975;SDS011;58635;51.198;6.010;2022-08-19T02:23:35;16.77;;;15.27;;
70975;SDS011;58635;51.198;6.010;2022-08-19T02:26:01;18.63;;;17.00;;
70975;SDS011;58635;51.198;6.010;2022-08-19T02:28:26;21.15;;;19.15;;
70975;SDS011;58635;51.198;6.010;2022-08-19T02:30:52;22.33;;;20.33;;
70975;SDS011;58635;51.198;6.010;2022-08-19T02:33:17;25.27;;;22.75;;
70975;SDS011;58635;51.198;6.010;2022-08-19T02:35:46;22.33;;;20.30;;
70975;SDS011;58635;51.198;6.010;2022-08-19T02:38:12;28.17;;;25.48;;
70975;SDS011;58635;51.198;6.010;2022-08-19T02:40:51;29.17;;;26.38;;
70975;SDS011;58635;51.198;6.010;2022-08-19T02:43:18;28.70;;;25.98;;
70975;SDS011;58635;51.198;6.010;2022-08-19T02:45:45;27.98;;;25.30;;
70975;SDS011;58635;51.198;6.010;2022-08-19T02:48:12;30.58;;;27.67;;
70975;SDS011;58635;51.198;6.010;2022-08-19T02:50:39;28.45;;;25.75;;
70975;SDS011;58635;51.198;6.010;2022-08-19T02:53:05;30.85;;;27.75;;
70975;SDS011;58635;51.198;6.010;2022-08-19T02:55:32;28.60;;;25.90;;
70975;SDS011;58635;51.198;6.010;2022-08-19T02:57:58;28.52;;;25.73;;
70975;SDS011;58635;51.198;6.010;2022-08-19T03:00:25;27.05;;;24.45;;
70975;SDS011;58635;51.198;6.010;2022-08-19T03:02:51;28.38;;;25.73;;
70975;SDS011;58635;51.198;6.010;2022-08-19T03:05:17;27.25;;;24.52;;
70975;SDS011;58635;51.198;6.010;2022-08-19T03:07:43;27.15;;;24.42;;
70975;SDS011;58635;51.198;6.010;2022-08-19T03:10:08;27.40;;;24.80;;
70975;SDS011;58635;51.198;6.010;2022-08-19T03:12:37;27.10;;;24.42;;
70975;SDS011;58635;51.198;6.010;2022-08-19T03:15:06;27.65;;;24.92;;
70975;SDS011;58635;51.198;6.010;2022-08-19T03:17:33;27.10;;;24.30;;
70975;SDS011;58635;51.198;6.010;2022-08-19T03:19:59;23.95;;;21.52;;
70975;SDS011;58635;51.198;6.010;2022-08-19T03:22:25;23.00;;;20.77;;
70975;SDS011;58635;51.198;6.010;2022-08-19T03:24:50;22.45;;;20.30;;
70975;SDS011;58635;51.198;6.010;2022-08-19T03:27:16;24.48;;;21.98;;
70975;SDS011;58635;51.198;6.010;2022-08-19T03:29:42;24.42;;;22.02;;
70975;SDS011;58635;51.198;6.010;2022-08-19T03:32:08;24.75;;;22.40;;
70975;SDS011;58635;51.198;6.010;2022-08-19T03:34:36;23.83;;;21.10;;
70975;SDS011;58635;51.198;6.010;2022-08-19T03:37:04;25.25;;;22.65;;
70975;SDS011;58635;51.198;6.010;2022-08-19T03:39:37;26.35;;;23.85;;
70975;SDS011;58635;51.198;6.010;2022-08-19T03:42:04;27.65;;;24.77;;
70975;SDS011;58635;51.198;6.010;2022-08-19T03:44:30;28.98;;;26.17;;
70975;SDS011;58635;51.198;6.010;2022-08-19T03:46:57;29.63;;;26.67;;
70975;SDS011;58635;51.198;6.010;2022-08-19T03:49:28;25.95;;;23.20;;
70975;SDS011;58635;51.198;6.010;2022-08-19T03:51:55;27.67;;;24.98;;
70975;SDS011;58635;51.198;6.010;2022-08-19T03:54:22;27.67;;;24.77;;
70975;SDS011;58635;51.198;6.010;2022-08-19T03:56:51;28.52;;;25.63;;
70975;SDS011;58635;51.198;6.010;2022-08-19T03:59:28;26.95;;;24.25;;
70975;SDS011;58635;51.198;6.010;2022-08-19T04:01:58;27.08;;;24.38;;
70975;SDS011;58635;51.198;6.010;2022-08-19T04:04:24;26.02;;;23.52;;
70975;SDS011;58635;51.198;6.010;2022-08-19T04:06:51;28.15;;;25.40;;
70975;SDS011;58635;51.198;6.010;2022-08-19T04:09:17;28.38;;;25.08;;
70975;SDS011;58635;51.198;6.010;2022-08-19T04:11:45;26.85;;;24.02;;
70975;SDS011;58635;51.198;6.010;2022-08-19T04:14:13;28.42;;;25.50;;
70975;SDS011;58635;51.198;6.010;2022-08-19T04:16:44;29.67;;;26.77;;
70975;SDS011;58635;51.198;6.010;2022-08-19T04:19:11;28.98;;;26.02;;
70975;SDS011;58635;51.198;6.010;2022-08-19T04:21:37;28.73;;;25.33;;
70975;SDS011;58635;51.198;6.010;2022-08-19T04:24:03;29.17;;;26.20;;
70975;SDS011;58635;51.198;6.010;2022-08-19T04:26:33;29.92;;;26.73;;
70975;SDS011;58635;51.198;6.010;2022-08-19T04:29:00;31.50;;;28.30;;
70975;SDS011;58635;51.198;6.010;2022-08-19T04:31:28;32.33;;;28.77;;
70975;SDS011;58635;51.198;6.010;2022-08-19T04:33:55;30.48;;;27.17;;
70975;SDS011;58635;51.198;6.010;2022-08-19T04:36:24;30.45;;;27.20;;
70975;SDS011;58635;51.198;6.010;2022-08-19T04:38:53;32.88;;;28.77;;
70975;SDS011;58635;51.198;6.010;2022-08-19T04:41:20;29.83;;;26.77;;
70975;SDS011;58635;51.198;6.010;2022-08-19T04:44:04;30.17;;;26.98;;
70975;SDS011;58635;51.198;6.010;2022-08-19T04:46:29;30.23;;;27.17;;
70975;SDS011;58635;51.198;6.010;2022-08-19T04:48:57;30.83;;;27.60;;
70975;SDS011;58635;51.198;6.010;2022-08-19T04:51:23;34.63;;;29.42;;
70975;SDS011;58635;51.198;6.010;2022-08-19T04:53:49;31.55;;;28.40;;
70975;SDS011;58635;51.198;6.010;2022-08-19T04:56:15;32.80;;;29.40;;
70975;SDS011;58635;51.198;6.010;2022-08-19T04:58:46;36.97;;;33.17;;
70975;SDS011;58635;51.198;6.010;2022-08-19T05:01:12;31.92;;;27.05;;
70975;SDS011;58635;51.198;6.010;2022-08-19T05:03:39;32.92;;;29.45;;
70975;SDS011;58635;51.198;6.010;2022-08-19T05:06:05;34.03;;;30.60;;
70975;SDS011;58635;51.198;6.010;2022-08-19T05:08:32;34.20;;;30.60;;
70975;SDS011;58635;51.198;6.010;2022-08-19T05:10:59;33.22;;;29.73;;
70975;SDS011;58635;51.198;6.010;2022-08-19T05:13:25;33.00;;;29.45;;
70975;SDS011;58635;51.198;6.010;2022-08-19T05:15:58;33.90;;;30.30;;
70975;SDS011;58635;51.198;6.010;2022-08-19T05:18:24;36.03;;;31.05;;
70975;SDS011;58635;51.198;6.010;2022-08-19T05:21:09;33.97;;;29.15;;
70975;SDS011;58635;51.198;6.010;2022-08-19T05:23:55;32.55;;;29.05;;
70975;SDS011;58635;51.198;6.010;2022-08-19T05:26:20;34.05;;;30.50;;
70975;SDS011;58635;51.198;6.010;2022-08-19T05:28:46;35.22;;;31.02;;
70975;SDS011;58635;51.198;6.010;2022-08-19T05:31:12;37.40;;;32.67;;
70975;SDS011;58635;51.198;6.010;2022-08-19T05:33:37;35.50;;;30.50;;
70975;SDS011;58635;51.198;6.010;2022-08-19T05:36:04;38.65;;;32.70;;
70975;SDS011;58635;51.198;6.010;2022-08-19T05:38:32;32.53;;;27.95;;
70975;SDS011;58635;51.198;6.010;2022-08-19T05:40:59;41.42;;;34.22;;
70975;SDS011;58635;51.198;6.010;2022-08-19T05:43:24;40.30;;;34.47;;
70975;SDS011;58635;51.198;6.010;2022-08-19T05:45:50;43.03;;;35.17;;
70975;SDS011;58635;51.198;6.010;2022-08-19T05:48:16;40.97;;;36.42;;
70975;SDS011;58635;51.198;6.010;2022-08-19T05:50:42;42.08;;;36.03;;
70975;SDS011;58635;51.198;6.010;2022-08-19T05:53:10;40.95;;;34.33;;
70975;SDS011;58635;51.198;6.010;2022-08-19T05:55:35;44.22;;;34.92;;
70975;SDS011;58635;51.198;6.010;2022-08-19T05:58:03;45.50;;;34.63;;
70975;SDS011;58635;51.198;6.010;2022-08-19T06:00:29;44.17;;;36.85;;
70975;SDS011;58635;51.198;6.010;2022-08-19T06:02:56;42.00;;;35.22;;
70975;SDS011;58635;51.198;6.010;2022-08-19T06:05:24;45.05;;;34.35;;
70975;SDS011;58635;51.198;6.010;2022-08-19T06:07:49;48.67;;;37.55;;
70975;SDS011;58635;51.198;6.010;2022-08-19T06:10:15;46.22;;;36.65;;
70975;SDS011;58635;51.198;6.010;2022-08-19T06:12:40;41.90;;;34.95;;
70975;SDS011;58635;51.198;6.010;2022-08-19T06:15:07;40.15;;;32.00;;
70975;SDS011;58635;51.198;6.010;2022-08-19T06:17:36;42.10;;;33.83;;
70975;SDS011;58635;51.198;6.010;2022-08-19T06:20:09;37.55;;;29.73;;
70975;SDS011;58635;51.198;6.010;2022-08-19T06:22:41;37.33;;;32.80;;
70975;SDS011;58635;51.198;6.010;2022-08-19T06:25:11;39.10;;;32.95;;
70975;SDS011;58635;51.198;6.010;2022-08-19T06:27:37;36.00;;;30.17;;
70975;SDS011;58635;51.198;6.010;2022-08-19T06:30:03;40.10;;;32.47;;
70975;SDS011;58635;51.198;6.010;2022-08-19T06:32:29;39.38;;;33.05;;
70975;SDS011;58635;51.198;6.010;2022-08-19T06:34:55;38.88;;;31.52;;
70975;SDS011;58635;51.198;6.010;2022-08-19T06:37:21;35.88;;;30.33;;
70975;SDS011;58635;51.198;6.010;2022-08-19T06:39:47;32.60;;;25.85;;
70975;SDS011;58635;51.198;6.010;2022-08-19T06:42:12;35.00;;;28.95;;
70975;SDS011;58635;51.198;6.010;2022-08-19T06:44:41;36.53;;;31.20;;
70975;SDS011;58635;51.198;6.010;2022-08-19T06:47:08;31.30;;;26.60;;
70975;SDS011;58635;51.198;6.010;2022-08-19T06:49:38;31.70;;;28.20;;
70975;SDS011;58635;51.198;6.010;2022-08-19T06:52:04;31.40;;;25.77;;
70975;SDS011;58635;51.198;6.010;2022-08-19T06:54:30;31.92;;;27.15;;
70975;SDS011;58635;51.198;6.010;2022-08-19T06:56:57;35.20;;;27.50;;
70975;SDS011;58635;51.198;6.010;2022-08-19T06:59:24;31.52;;;25.95;;
70975;SDS011;58635;51.198;6.010;2022-08-19T07:01:53;33.00;;;25.88;;
70975;SDS011;58635;51.198;6.010;2022-08-19T07:04:22;33.45;;;24.15;;
70975;SDS011;58635;51.198;6.010;2022-08-19T07:06:56;29.42;;;22.63;;
70975;SDS011;58635;51.198;6.010;2022-08-19T07:11:59;25.27;;;20.90;;
70975;SDS011;58635;51.198;6.010;2022-08-19T07:14:26;28.50;;;22.35;;
70975;SDS011;58635;51.198;6.010;2022-08-19T07:16:53;28.08;;;20.40;;
70975;SDS011;58635;51.198;6.010;2022-08-19T07:19:20;28.40;;;22.95;;
70975;SDS011;58635;51.198;6.010;2022-08-19T07:21:48;31.73;;;26.90;;
70975;SDS011;58635;51.198;6.010;2022-08-19T07:24:16;29.13;;;23.17;;
70975;SDS011;58635;51.198;6.010;2022-08-19T07:26:42;27.25;;;22.10;;
70975;SDS011;58635;51.198;6.010;2022-08-19T07:29:08;26.60;;;21.88;;
70975;SDS011;58635;51.198;6.010;2022-08-19T07:31:35;26.20;;;21.70;;
70975;SDS011;58635;51.198;6.010;2022-08-19T07:34:02;27.52;;;24.35;;
70975;SDS011;58635;51.198;6.010;2022-08-19T07:36:33;27.83;;;22.33;;
70975;SDS011;58635;51.198;6.010;2022-08-19T07:39:05;28.83;;;21.77;;
70975;SDS011;58635;51.198;6.010;2022-08-19T07:41:36;24.45;;;20.70;;
70975;SDS011;58635;51.198;6.010;2022-08-19T07:44:03;25.83;;;21.95;;
70975;SDS011;58635;51.198;6.010;2022-08-19T07:46:32;34.92;;;26.35;;
70975;SDS011;58635;51.198;6.010;2022-08-19T07:49:04;30.25;;;23.48;;
70975;SDS011;58635;51.198;6.010;2022-08-19T07:51:30;25.75;;;20.65;;
70975;SDS011;58635;51.198;6.010;2022-08-19T07:53:55;24.40;;;21.80;;
70975;SDS011;58635;51.198;6.010;2022-08-19T07:56:21;25.85;;;22.05;;
70975;SDS011;58635;51.198;6.010;2022-08-19T07:58:48;28.73;;;21.35;;
70975;SDS011;58635;51.198;6.010;2022-08-19T08:01:16;23.98;;;19.77;;
70975;SDS011;58635;51.198;6.010;2022-08-19T08:03:45;21.88;;;19.15;;
70975;SDS011;58635;51.198;6.010;2022-08-19T08:06:31;26.50;;;20.88;;
70975;SDS011;58635;51.198;6.010;2022-08-19T08:09:16;25.95;;;18.48;;
70975;SDS011;58635;51.198;6.010;2022-08-19T08:11:49;26.67;;;22.57;;
70975;SDS011;58635;51.198;6.010;2022-08-19T08:14:23;20.47;;;16.03;;
70975;SDS011;58635;51.198;6.010;2022-08-19T08:16:52;23.55;;;17.10;;
70975;SDS011;58635;51.198;6.010;2022-08-19T08:19:19;23.95;;;15.73;;
70975;SDS011;58635;51.198;6.010;2022-08-19T08:21:46;20.30;;;16.38;;
70975;SDS011;58635;51.198;6.010;2022-08-19T08:24:11;20.05;;;16.08;;
70975;SDS011;58635;51.198;6.010;2022-08-19T08:26:37;21.13;;;15.93;;
70975;SDS011;58635;51.198;6.010;2022-08-19T08:29:02;19.90;;;14.80;;
70975;SDS011;58635;51.198;6.010;2022-08-19T08:31:28;20.63;;;15.77;;
70975;SDS011;58635;51.198;6.010;2022-08-19T08:33:53;21.70;;;16.75;;
70975;SDS011;58635;51.198;6.010;2022-08-19T08:36:19;21.55;;;15.23;;
70975;SDS011;58635;51.198;6.010;2022-08-19T08:38:45;20.67;;;13.20;;
70975;SDS011;58635;51.198;6.010;2022-08-19T08:41:33;16.80;;;11.48;;
70975;SDS011;58635;51.198;6.010;2022-08-19T08:44:06;15.20;;;10.95;;
70975;SDS011;58635;51.198;6.010;2022-08-19T08:46:41;12.75;;;10.05;;
70975;SDS011;58635;51.198;6.010;2022-08-19T08:49:18;17.63;;;10.30;;
70975;SDS011;58635;51.198;6.010;2022-08-19T08:54:19;14.93;;;9.27;;
70975;SDS011;58635;51.198;6.010;2022-08-19T08:56:48;13.10;;;10.02;;
70975;SDS011;58635;51.198;6.010;2022-08-19T08:59:20;16.75;;;9.85;;
70975;SDS011;58635;51.198;6.010;2022-08-19T09:01:46;14.55;;;10.40;;
70975;SDS011;58635;51.198;6.010;2022-08-19T09:04:13;15.95;;;11.20;;
70975;SDS011;58635;51.198;6.010;2022-08-19T09:06:44;15.00;;;10.85;;
70975;SDS011;58635;51.198;6.010;2022-08-19T09:11:48;21.85;;;18.10;;
70975;SDS011;58635;51.198;6.010;2022-08-19T09:17:06;16.60;;;11.40;;
70975;SDS011;58635;51.198;6.010;2022-08-19T09:19:33;15.35;;;11.70;;
70975;SDS011;58635;51.198;6.010;2022-08-19T09:22:00;14.50;;;11.35;;
70975;SDS011;58635;51.198;6.010;2022-08-19T09:24:26;15.90;;;11.85;;
70975;SDS011;58635;51.198;6.010;2022-08-19T09:26:52;17.27;;;11.27;;
70975;SDS011;58635;51.198;6.010;2022-08-19T09:29:17;14.80;;;12.35;;
70975;SDS011;58635;51.198;6.010;2022-08-19T09:31:43;14.65;;;11.35;;
70975;SDS011;58635;51.198;6.010;2022-08-19T09:34:08;15.73;;;13.50;;
70975;SDS011;58635;51.198;6.010;2022-08-19T09:36:33;16.38;;;12.48;;
70975;SDS011;58635;51.198;6.010;2022-08-19T09:39:01;17.73;;;13.77;;
70975;SDS011;58635;51.198;6.010;2022-08-19T09:41:30;17.08;;;13.02;;
70975;SDS011;58635;51.198;6.010;2022-08-19T09:43:56;15.55;;;12.88;;
70975;SDS011;58635;51.198;6.010;2022-08-19T09:46:25;16.02;;;12.35;;
70975;SDS011;58635;51.198;6.010;2022-08-19T09:48:53;13.02;;;10.93;;
70975;SDS011;58635;51.198;6.010;2022-08-19T09:51:22;14.48;;;11.02;;
70975;SDS011;58635;51.198;6.010;2022-08-19T09:53:51;19.75;;;11.60;;
70975;SDS011;58635;51.198;6.010;2022-08-19T09:56:19;14.02;;;10.77;;
70975;SDS011;58635;51.198;6.010;2022-08-19T09:58:45;12.82;;;10.40;;
70975;SDS011;58635;51.198;6.010;2022-08-19T10:01:19;14.75;;;11.73;;
70975;SDS011;58635;51.198;6.010;2022-08-19T10:03:51;13.98;;;11.70;;
70975;SDS011;58635;51.198;6.010;2022-08-19T10:06:20;16.60;;;10.53;;
70975;SDS011;58635;51.198;6.010;2022-08-19T10:08:47;19.92;;;10.93;;
70975;SDS011;58635;51.198;6.010;2022-08-19T10:11:13;19.33;;;12.27;;
70975;SDS011;58635;51.198;6.010;2022-08-19T10:13:42;13.25;;;11.57;;
70975;SDS011;58635;51.198;6.010;2022-08-19T10:16:10;13.95;;;11.35;;
70975;SDS011;58635;51.198;6.010;2022-08-19T10:18:38;13.55;;;11.15;;
70975;SDS011;58635;51.198;6.010;2022-08-19T10:21:08;13.35;;;9.90;;
70975;SDS011;58635;51.198;6.010;2022-08-19T10:23:39;13.32;;;10.55;;
70975;SDS011;58635;51.198;6.010;2022-08-19T10:26:10;12.05;;;9.05;;
70975;SDS011;58635;51.198;6.010;2022-08-19T10:28:38;13.95;;;9.70;;
70975;SDS011;58635;51.198;6.010;2022-08-19T10:31:07;13.05;;;9.38;;
70975;SDS011;58635;51.198;6.010;2022-08-19T10:33:35;13.82;;;10.27;;
70975;SDS011;58635;51.198;6.010;2022-08-19T10:36:04;11.00;;;9.57;;
70975;SDS011;58635;51.198;6.010;2022-08-19T10:38:31;14.82;;;10.05;;
70975;SDS011;58635;51.198;6.010;2022-08-19T10:41:05;11.00;;;9.52;;
70975;SDS011;58635;51.198;6.010;2022-08-19T10:43:35;10.60;;;9.40;;
70975;SDS011;58635;51.198;6.010;2022-08-19T10:46:03;11.30;;;8.27;;
70975;SDS011;58635;51.198;6.010;2022-08-19T10:48:30;10.32;;;7.70;;
70975;SDS011;58635;51.198;6.010;2022-08-19T10:50:57;10.80;;;9.05;;
70975;SDS011;58635;51.198;6.010;2022-08-19T10:53:41;11.10;;;8.38;;
70975;SDS011;58635;51.198;6.010;2022-08-19T10:56:06;13.45;;;8.77;;
70975;SDS011;58635;51.198;6.010;2022-08-19T10:58:50;9.45;;;7.50;;
70975;SDS011;58635;51.198;6.010;2022-08-19T11:01:16;9.57;;;5.97;;
70975;SDS011;58635;51.198;6.010;2022-08-19T11:03:41;7.57;;;6.75;;
70975;SDS011;58635;51.198;6.010;2022-08-19T11:06:07;8.60;;;6.25;;
70975;SDS011;58635;51.198;6.010;2022-08-19T11:08:33;9.05;;;6.20;;
70975;SDS011;58635;51.198;6.010;2022-08-19T11:11:00;9.80;;;6.40;;
70975;SDS011;58635;51.198;6.010;2022-08-19T11:13:28;8.80;;;6.80;;
70975;SDS011;58635;51.198;6.010;2022-08-19T11:18:36;8.20;;;5.75;;
70975;SDS011;58635;51.198;6.010;2022-08-19T11:21:07;9.07;;;5.70;;
70975;SDS011;58635;51.198;6.010;2022-08-19T11:23:36;8.20;;;5.25;;
70975;SDS011;58635;51.198;6.010;2022-08-19T11:26:02;7.75;;;5.03;;
70975;SDS011;58635;51.198;6.010;2022-08-19T11:28:27;10.65;;;5.22;;
70975;SDS011;58635;51.198;6.010;2022-08-19T11:30:53;9.30;;;5.28;;
70975;SDS011;58635;51.198;6.010;2022-08-19T11:33:18;6.95;;;4.85;;
70975;SDS011;58635;51.198;6.010;2022-08-19T11:35:44;9.40;;;5.30;;
70975;SDS011;58635;51.198;6.010;2022-08-19T11:38:09;8.82;;;5.28;;
70975;SDS011;58635;51.198;6.010;2022-08-19T11:40:36;11.27;;;5.07;;
70975;SDS011;58635;51.198;6.010;2022-08-19T11:43:01;6.93;;;4.90;;
70975;SDS011;58635;51.198;6.010;2022-08-19T11:45:27;8.15;;;5.18;;
70975;SDS011;58635;51.198;6.010;2022-08-19T11:47:54;7.55;;;4.28;;
70975;SDS011;58635;51.198;6.010;2022-08-19T11:50:20;8.00;;;4.38;;
70975;SDS011;58635;51.198;6.010;2022-08-19T11:52:45;7.95;;;4.80;;
70975;SDS011;58635;51.198;6.010;2022-08-19T11:55:13;9.23;;;5.00;;
70975;SDS011;58635;51.198;6.010;2022-08-19T11:57:39;7.40;;;4.30;;
70975;SDS011;58635;51.198;6.010;2022-08-19T12:00:06;14.63;;;5.82;;
70975;SDS011;58635;51.198;6.010;2022-08-19T12:02:32;6.68;;;4.80;;
70975;SDS011;58635;51.198;6.010;2022-08-19T12:04:58;8.13;;;4.90;;
70975;SDS011;58635;51.198;6.010;2022-08-19T12:07:27;8.10;;;4.32;;
70975;SDS011;58635;51.198;6.010;2022-08-19T12:09:52;6.28;;;4.38;;
70975;SDS011;58635;51.198;6.010;2022-08-19T12:12:17;7.35;;;3.90;;
70975;SDS011;58635;51.198;6.010;2022-08-19T12:14:43;6.55;;;3.88;;
70975;SDS011;58635;51.198;6.010;2022-08-19T12:17:08;6.18;;;3.65;;
70975;SDS011;58635;51.198;6.010;2022-08-19T12:19:36;17.15;;;14.57;;
70975;SDS011;58635;51.198;6.010;2022-08-19T12:22:02;5.93;;;3.60;;
70975;SDS011;58635;51.198;6.010;2022-08-19T12:24:29;9.70;;;3.75;;
70975;SDS011;58635;51.198;6.010;2022-08-19T12:26:56;6.07;;;4.40;;
70975;SDS011;58635;51.198;6.010;2022-08-19T12:29:23;9.25;;;4.05;;
70975;SDS011;58635;51.198;6.010;2022-08-19T12:31:53;7.03;;;4.32;;
70975;SDS011;58635;51.198;6.010;2022-08-19T12:34:19;6.40;;;4.43;;
70975;SDS011;58635;51.198;6.010;2022-08-19T12:36:45;9.13;;;3.70;;
70975;SDS011;58635;51.198;6.010;2022-08-19T12:39:10;5.20;;;3.63;;
70975;SDS011;58635;51.198;6.010;2022-08-19T12:41:36;7.63;;;3.83;;
70975;SDS011;58635;51.198;6.010;2022-08-19T12:44:02;6.50;;;3.78;;
70975;SDS011;58635;51.198;6.010;2022-08-19T12:46:28;5.78;;;3.70;;
70975;SDS011;58635;51.198;6.010;2022-08-19T12:48:53;6.65;;;3.67;;
70975;SDS011;58635;51.198;6.010;2022-08-19T12:51:19;5.75;;;4.10;;
70975;SDS011;58635;51.198;6.010;2022-08-19T12:53:45;7.75;;;3.58;;
70975;SDS011;58635;51.198;6.010;2022-08-19T12:56:12;5.03;;;3.38;;
70975;SDS011;58635;51.198;6.010;2022-08-19T12:58:39;6.93;;;3.58;;
70975;SDS011;58635;51.198;6.010;2022-08-19T13:01:10;7.40;;;3.35;;
70975;SDS011;58635;51.198;6.010;2022-08-19T13:03:41;6.32;;;3.60;;
70975;SDS011;58635;51.198;6.010;2022-08-19T13:06:08;5.38;;;2.95;;
70975;SDS011;58635;51.198;6.010;2022-08-19T13:08:34;4.32;;;2.80;;
70975;SDS011;58635;51.198;6.010;2022-08-19T13:11:13;6.20;;;3.63;;
70975;SDS011;58635;51.198;6.010;2022-08-19T13:13:41;42.25;;;37.95;;
70975;SDS011;58635;51.198;6.010;2022-08-19T13:16:09;6.50;;;3.72;;
70975;SDS011;58635;51.198;6.010;2022-08-19T13:18:36;8.27;;;3.63;;
70975;SDS011;58635;51.198;6.010;2022-08-19T13:21:03;5.45;;;3.20;;
70975;SDS011;58635;51.198;6.010;2022-08-19T13:23:31;5.07;;;3.00;;
70975;SDS011;58635;51.198;6.010;2022-08-19T13:26:01;6.10;;;3.45;;
70975;SDS011;58635;51.198;6.010;2022-08-19T13:31:16;4.78;;;2.78;;
70975;SDS011;58635;51.198;6.010;2022-08-19T13:34:00;4.35;;;2.90;;
70975;SDS011;58635;51.198;6.010;2022-08-19T13:36:26;7.30;;;3.42;;
70975;SDS011;58635;51.198;6.010;2022-08-19T13:38:51;8.30;;;3.28;;
70975;SDS011;58635;51.198;6.010;2022-08-19T13:41:17;8.35;;;3.60;;
70975;SDS011;58635;51.198;6.010;2022-08-19T13:43:44;5.97;;;3.80;;
70975;SDS011;58635;51.198;6.010;2022-08-19T13:46:10;6.32;;;3.13;;
70975;SDS011;58635;51.198;6.010;2022-08-19T13:48:39;6.95;;;3.67;;
70975;SDS011;58635;51.198;6.010;2022-08-19T13:51:08;5.30;;;4.00;;
70975;SDS011;58635;51.198;6.010;2022-08-19T13:53:39;7.63;;;3.60;;
70975;SDS011;58635;51.198;6.010;2022-08-19T13:56:05;6.07;;;3.83;;
70975;SDS011;58635;51.198;6.010;2022-08-19T13:58:32;6.85;;;3.40;;
70975;SDS011;58635;51.198;6.010;2022-08-19T14:00:57;4.10;;;2.83;;
70975;SDS011;58635;51.198;6.010;2022-08-19T14:03:24;6.07;;;3.17;;
70975;SDS011;58635;51.198;6.010;2022-08-19T14:05:50;4.72;;;2.88;;
70975;SDS011;58635;51.198;6.010;2022-08-19T14:08:15;4.72;;;3.33;;
70975;SDS011;58635;51.198;6.010;2022-08-19T14:10:41;5.38;;;3.55;;
70975;SDS011;58635;51.198;6.010;2022-08-19T14:13:09;4.00;;;2.97;;
70975;SDS011;58635;51.198;6.010;2022-08-19T14:15:35;5.60;;;3.50;;
70975;SDS011;58635;51.198;6.010;2022-08-19T14:18:02;6.22;;;3.05;;
70975;SDS011;58635;51.198;6.010;2022-08-19T14:20:27;5.40;;;2.97;;
70975;SDS011;58635;51.198;6.010;2022-08-19T14:22:54;3.85;;;2.70;;
70975;SDS011;58635;51.198;6.010;2022-08-19T14:25:24;5.75;;;2.95;;
70975;SDS011;58635;51.198;6.010;2022-08-19T14:27:51;4.75;;;3.25;;
70975;SDS011;58635;51.198;6.010;2022-08-19T14:30:19;7.28;;;4.80;;
70975;SDS011;58635;51.198;6.010;2022-08-19T14:32:46;4.15;;;2.13;;
70975;SDS011;58635;51.198;6.010;2022-08-19T14:35:13;3.50;;;2.35;;
70975;SDS011;58635;51.198;6.010;2022-08-19T14:37:41;5.30;;;2.30;;
70975;SDS011;58635;51.198;6.010;2022-08-19T14:40:08;8.40;;;2.97;;
70975;SDS011;58635;51.198;6.010;2022-08-19T14:42:34;12.93;;;3.20;;
70975;SDS011;58635;51.198;6.010;2022-08-19T14:44:59;5.40;;;2.50;;
70975;SDS011;58635;51.198;6.010;2022-08-19T14:47:25;3.50;;;2.30;;